sensor_id;sensor_type;location;lat;lon;timestamp;temperature;humidity
31639;DHT22;18248;51.522;7.020;2023-06-22T00:02:43;24.20;99.90
31639;DHT22;18248;51.522;7.020;2023-06-22T00:05:43;24.20;99.90
31639;DHT22;18248;51.522;7.020;2023-06-22T00:08:42;24.10;99.90
31639;DHT22;18248;51.522;7.020;2023-06-22T00:11:40;24.10;99.90
31639;DHT22;18248;51.522;7.020;2023-06-22T00:14:39;24.00;99.90
31639;DHT22;18248;51.522;7.020;2023-06-22T00:17:37;23.90;99.90
31639;DHT22;18248;51.522;7.020;2023-06-22T00:20:36;23.90;99.90
31639;DHT22;18248;51.522;7.020;2023-06-22T00:23:36;23.90;99.90
31639;DHT22;18248;51.522;7.020;2023-06-22T00:26:35;23.90;99.90
31639;DHT22;18248;51.522;7.020;2023-06-22T00:29:33;23.90;99.90
31639;DHT22;18248;51.522;7.020;2023-06-22T00:32:33;23.90;99.90
31639;DHT22;18248;51.522;7.020;2023-06-22T00:35:32;23.90;99.90
31639;DHT22;18248;51.522;7.020;2023-06-22T00:38:31;23.90;99.90
31639;DHT22;18248;51.522;7.020;2023-06-22T00:41:30;23.90;99.90
31639;DHT22;18248;51.522;7.020;2023-06-22T00:44:29;23.80;99.90
31639;DHT22;18248;51.522;7.020;2023-06-22T00:47:27;23.80;99.90
31639;DHT22;18248;51.522;7.020;2023-06-22T00:50:28;23.80;99.90
31639;DHT22;18248;51.522;7.020;2023-06-22T00:53:27;23.70;99.90
31639;DHT22;18248;51.522;7.020;2023-06-22T00:56:25;23.70;99.90
31639;DHT22;18248;51.522;7.020;2023-06-22T00:59:27;23.60;99.90
31639;DHT22;18248;51.522;7.020;2023-06-22T01:02:26;23.60;99.90
31639;DHT22;18248;51.522;7.020;2023-06-22T01:05:24;23.60;99.90
31639;DHT22;18248;51.522;7.020;2023-06-22T01:08:27;23.60;99.90
31639;DHT22;18248;51.522;7.020;2023-06-22T01:11:28;23.60;99.90
31639;DHT22;18248;51.522;7.020;2023-06-22T01:14:40;23.50;99.90
31639;DHT22;18248;51.522;7.020;2023-06-22T01:17:41;23.40;99.90
31639;DHT22;18248;51.522;7.020;2023-06-22T01:20:41;23.40;99.90
31639;DHT22;18248;51.522;7.020;2023-06-22T01:24:18;23.40;99.90
31639;DHT22;18248;51.522;7.020;2023-06-22T01:27:37;23.30;99.90
31639;DHT22;18248;51.522;7.020;2023-06-22T01:30:40;23.30;99.90
31639;DHT22;18248;51.522;7.020;2023-06-22T01:33:41;23.30;99.90
31639;DHT22;18248;51.522;7.020;2023-06-22T01:36:41;23.30;99.90
31639;DHT22;18248;51.522;7.020;2023-06-22T01:39:41;23.30;99.90
31639;DHT22;18248;51.522;7.020;2023-06-22T01:42:41;23.30;99.90
31639;DHT22;18248;51.522;7.020;2023-06-22T01:45:42;23.30;99.90
31639;DHT22;18248;51.522;7.020;2023-06-22T01:48:41;23.30;99.90
31639;DHT22;18248;51.522;7.020;2023-06-22T01:51:39;23.30;99.90
31639;DHT22;18248;51.522;7.020;2023-06-22T01:54:39;23.30;99.90
31639;DHT22;18248;51.522;7.020;2023-06-22T01:57:40;23.30;99.90
31639;DHT22;18248;51.522;7.020;2023-06-22T02:00:40;23.30;99.90
31639;DHT22;18248;51.522;7.020;2023-06-22T02:07:44;23.20;99.90
31639;DHT22;18248;51.522;7.020;2023-06-22T02:10:45;23.10;99.90
31639;DHT22;18248;51.522;7.020;2023-06-22T02:13:45;23.10;99.90
31639;DHT22;18248;51.522;7.020;2023-06-22T02:16:44;23.10;99.90
31639;DHT22;18248;51.522;7.020;2023-06-22T02:19:43;23.10;99.90
31639;DHT22;18248;51.522;7.020;2023-06-22T02:22:42;23.10;99.90
31639;DHT22;18248;51.522;7.020;2023-06-22T02:25:41;23.00;99.90
31639;DHT22;18248;51.522;7.020;2023-06-22T02:28:42;23.00;99.90
31639;DHT22;18248;51.522;7.020;2023-06-22T02:31:41;22.90;99.90
31639;DHT22;18248;51.522;7.020;2023-06-22T02:34:40;22.90;99.90
31639;DHT22;18248;51.522;7.020;2023-06-22T02:37:39;22.90;99.90
31639;DHT22;18248;51.522;7.020;2023-06-22T02:40:39;22.90;99.90
31639;DHT22;18248;51.522;7.020;2023-06-22T02:43:38;22.90;99.90
31639;DHT22;18248;51.522;7.020;2023-06-22T02:46:36;22.90;99.90
31639;DHT22;18248;51.522;7.020;2023-06-22T02:49:36;22.80;99.90
31639;DHT22;18248;51.522;7.020;2023-06-22T02:52:35;22.80;99.90
31639;DHT22;18248;51.522;7.020;2023-06-22T02:55:35;22.80;99.90
31639;DHT22;18248;51.522;7.020;2023-06-22T02:58:35;22.80;99.90
31639;DHT22;18248;51.522;7.020;2023-06-22T03:01:37;22.70;99.90
31639;DHT22;18248;51.522;7.020;2023-06-22T03:04:38;22.70;99.90
31639;DHT22;18248;51.522;7.020;2023-06-22T03:07:37;22.70;99.90
31639;DHT22;18248;51.522;7.020;2023-06-22T03:10:35;22.60;99.90
31639;DHT22;18248;51.522;7.020;2023-06-22T03:13:34;22.60;99.90
31639;DHT22;18248;51.522;7.020;2023-06-22T03:16:34;22.50;99.90
31639;DHT22;18248;51.522;7.020;2023-06-22T03:19:32;22.50;99.90
31639;DHT22;18248;51.522;7.020;2023-06-22T03:22:31;22.50;99.90
31639;DHT22;18248;51.522;7.020;2023-06-22T03:25:29;22.50;99.90
31639;DHT22;18248;51.522;7.020;2023-06-22T03:28:28;22.40;99.90
31639;DHT22;18248;51.522;7.020;2023-06-22T03:31:26;22.40;99.90
31639;DHT22;18248;51.522;7.020;2023-06-22T03:34:25;22.40;99.90
31639;DHT22;18248;51.522;7.020;2023-06-22T03:37:24;22.40;99.90
31639;DHT22;18248;51.522;7.020;2023-06-22T03:40:22;22.40;99.90
31639;DHT22;18248;51.522;7.020;2023-06-22T03:43:21;22.30;99.90
31639;DHT22;18248;51.522;7.020;2023-06-22T03:46:19;22.30;99.90
31639;DHT22;18248;51.522;7.020;2023-06-22T03:49:19;22.30;99.90
31639;DHT22;18248;51.522;7.020;2023-06-22T03:52:17;22.30;99.90
31639;DHT22;18248;51.522;7.020;2023-06-22T03:55:16;22.30;99.90
31639;DHT22;18248;51.522;7.020;2023-06-22T03:58:15;22.30;99.90
31639;DHT22;18248;51.522;7.020;2023-06-22T04:01:13;22.30;99.90
31639;DHT22;18248;51.522;7.020;2023-06-22T04:04:12;22.30;99.90
31639;DHT22;18248;51.522;7.020;2023-06-22T04:07:11;22.30;99.90
31639;DHT22;18248;51.522;7.020;2023-06-22T04:10:09;22.30;99.90
31639;DHT22;18248;51.522;7.020;2023-06-22T04:13:08;22.30;99.90
31639;DHT22;18248;51.522;7.020;2023-06-22T04:16:08;22.30;99.90
31639;DHT22;18248;51.522;7.020;2023-06-22T04:19:08;22.30;99.90
31639;DHT22;18248;51.522;7.020;2023-06-22T04:22:12;22.40;99.90
31639;DHT22;18248;51.522;7.020;2023-06-22T04:25:11;22.30;99.90
31639;DHT22;18248;51.522;7.020;2023-06-22T04:28:09;22.30;99.90
31639;DHT22;18248;51.522;7.020;2023-06-22T04:31:10;22.30;99.90
31639;DHT22;18248;51.522;7.020;2023-06-22T04:34:09;22.20;99.90
31639;DHT22;18248;51.522;7.020;2023-06-22T04:37:09;22.30;99.90
31639;DHT22;18248;51.522;7.020;2023-06-22T04:40:13;22.40;99.90
31639;DHT22;18248;51.522;7.020;2023-06-22T04:43:12;22.50;99.90
31639;DHT22;18248;51.522;7.020;2023-06-22T04:46:11;22.50;99.90
31639;DHT22;18248;51.522;7.020;2023-06-22T04:49:10;22.50;99.90
31639;DHT22;18248;51.522;7.020;2023-06-22T04:52:09;22.60;99.90
31639;DHT22;18248;51.522;7.020;2023-06-22T04:55:08;22.60;99.90
31639;DHT22;18248;51.522;7.020;2023-06-22T04:58:07;22.60;99.90
31639;DHT22;18248;51.522;7.020;2023-06-22T05:01:06;22.50;99.90
31639;DHT22;18248;51.522;7.020;2023-06-22T05:04:04;22.50;99.90
31639;DHT22;18248;51.522;7.020;2023-06-22T05:07:05;22.50;99.90
31639;DHT22;18248;51.522;7.020;2023-06-22T05:10:06;22.50;99.90
31639;DHT22;18248;51.522;7.020;2023-06-22T05:13:04;22.60;99.90
31639;DHT22;18248;51.522;7.020;2023-06-22T05:16:03;22.60;99.90
31639;DHT22;18248;51.522;7.020;2023-06-22T05:19:02;22.60;99.90
31639;DHT22;18248;51.522;7.020;2023-06-22T05:22:02;22.60;99.90
31639;DHT22;18248;51.522;7.020;2023-06-22T05:25:00;22.60;99.90
31639;DHT22;18248;51.522;7.020;2023-06-22T05:27:59;22.60;99.90
31639;DHT22;18248;51.522;7.020;2023-06-22T05:30:57;22.60;99.90
31639;DHT22;18248;51.522;7.020;2023-06-22T05:33:58;22.60;99.90
31639;DHT22;18248;51.522;7.020;2023-06-22T05:36:58;22.60;99.90
31639;DHT22;18248;51.522;7.020;2023-06-22T05:40:00;22.50;99.90
31639;DHT22;18248;51.522;7.020;2023-06-22T05:42:59;22.50;99.90
31639;DHT22;18248;51.522;7.020;2023-06-22T05:46:00;22.50;99.90
31639;DHT22;18248;51.522;7.020;2023-06-22T05:48:59;22.50;99.90
31639;DHT22;18248;51.522;7.020;2023-06-22T05:51:58;22.50;99.90
31639;DHT22;18248;51.522;7.020;2023-06-22T05:54:57;22.50;99.90
31639;DHT22;18248;51.522;7.020;2023-06-22T05:57:56;22.50;99.90
31639;DHT22;18248;51.522;7.020;2023-06-22T06:00:54;22.60;99.90
31639;DHT22;18248;51.522;7.020;2023-06-22T06:03:53;22.60;99.90
31639;DHT22;18248;51.522;7.020;2023-06-22T06:06:51;22.60;99.90
31639;DHT22;18248;51.522;7.020;2023-06-22T06:09:50;22.60;99.90
31639;DHT22;18248;51.522;7.020;2023-06-22T06:12:48;22.60;99.90
31639;DHT22;18248;51.522;7.020;2023-06-22T06:15:47;22.70;99.90
31639;DHT22;18248;51.522;7.020;2023-06-22T06:18:46;22.70;99.90
31639;DHT22;18248;51.522;7.020;2023-06-22T06:21:44;22.70;99.90
31639;DHT22;18248;51.522;7.020;2023-06-22T06:24:45;22.70;99.90
31639;DHT22;18248;51.522;7.020;2023-06-22T06:27:44;22.60;99.90
31639;DHT22;18248;51.522;7.020;2023-06-22T06:30:43;22.60;99.90
31639;DHT22;18248;51.522;7.020;2023-06-22T06:33:42;22.60;99.90
31639;DHT22;18248;51.522;7.020;2023-06-22T06:36:40;22.60;99.90
31639;DHT22;18248;51.522;7.020;2023-06-22T06:39:39;22.60;99.90
31639;DHT22;18248;51.522;7.020;2023-06-22T06:42:40;22.60;99.90
31639;DHT22;18248;51.522;7.020;2023-06-22T06:45:40;22.60;99.90
31639;DHT22;18248;51.522;7.020;2023-06-22T06:48:38;22.60;99.90
31639;DHT22;18248;51.522;7.020;2023-06-22T06:51:38;22.60;99.90
31639;DHT22;18248;51.522;7.020;2023-06-22T06:54:36;22.60;99.90
31639;DHT22;18248;51.522;7.020;2023-06-22T06:57:35;22.50;99.90
31639;DHT22;18248;51.522;7.020;2023-06-22T07:00:35;22.60;99.90
31639;DHT22;18248;51.522;7.020;2023-06-22T07:03:34;22.60;99.90
31639;DHT22;18248;51.522;7.020;2023-06-22T07:06:32;22.60;99.90
31639;DHT22;18248;51.522;7.020;2023-06-22T07:09:32;22.60;99.90
31639;DHT22;18248;51.522;7.020;2023-06-22T07:12:30;22.60;99.90
31639;DHT22;18248;51.522;7.020;2023-06-22T07:15:29;22.60;99.90
31639;DHT22;18248;51.522;7.020;2023-06-22T07:18:27;22.60;99.90
31639;DHT22;18248;51.522;7.020;2023-06-22T07:21:26;22.60;99.90
31639;DHT22;18248;51.522;7.020;2023-06-22T07:24:24;22.60;99.90
31639;DHT22;18248;51.522;7.020;2023-06-22T07:27:24;22.70;99.90
31639;DHT22;18248;51.522;7.020;2023-06-22T07:30:23;22.70;99.90
31639;DHT22;18248;51.522;7.020;2023-06-22T07:33:22;22.70;99.90
31639;DHT22;18248;51.522;7.020;2023-06-22T07:36:22;22.80;99.90
31639;DHT22;18248;51.522;7.020;2023-06-22T07:39:20;22.80;99.90
31639;DHT22;18248;51.522;7.020;2023-06-22T07:42:27;22.90;99.90
31639;DHT22;18248;51.522;7.020;2023-06-22T07:45:25;22.90;99.90
31639;DHT22;18248;51.522;7.020;2023-06-22T07:48:24;22.90;99.90
31639;DHT22;18248;51.522;7.020;2023-06-22T07:51:23;23.00;99.90
31639;DHT22;18248;51.522;7.020;2023-06-22T07:54:22;23.20;99.90
31639;DHT22;18248;51.522;7.020;2023-06-22T07:57:23;23.30;99.90
31639;DHT22;18248;51.522;7.020;2023-06-22T08:00:30;23.40;99.90
31639;DHT22;18248;51.522;7.020;2023-06-22T08:03:28;23.40;99.90
31639;DHT22;18248;51.522;7.020;2023-06-22T08:06:30;23.50;99.90
31639;DHT22;18248;51.522;7.020;2023-06-22T08:09:30;23.60;99.90
31639;DHT22;18248;51.522;7.020;2023-06-22T08:12:30;23.60;99.90
31639;DHT22;18248;51.522;7.020;2023-06-22T08:15:29;23.70;99.90
31639;DHT22;18248;51.522;7.020;2023-06-22T08:18:28;23.70;99.90
31639;DHT22;18248;51.522;7.020;2023-06-22T08:21:27;23.70;99.90
31639;DHT22;18248;51.522;7.020;2023-06-22T08:24:26;23.80;99.90
31639;DHT22;18248;51.522;7.020;2023-06-22T08:27:29;23.90;99.90
31639;DHT22;18248;51.522;7.020;2023-06-22T08:30:29;23.90;99.90
31639;DHT22;18248;51.522;7.020;2023-06-22T08:33:28;24.00;99.90
31639;DHT22;18248;51.522;7.020;2023-06-22T08:36:26;24.10;99.90
31639;DHT22;18248;51.522;7.020;2023-06-22T08:39:28;24.60;99.90
31639;DHT22;18248;51.522;7.020;2023-06-22T08:42:27;25.30;99.90
31639;DHT22;18248;51.522;7.020;2023-06-22T08:45:25;25.70;99.90
31639;DHT22;18248;51.522;7.020;2023-06-22T08:48:24;25.90;99.90
31639;DHT22;18248;51.522;7.020;2023-06-22T08:51:23;26.10;99.90
31639;DHT22;18248;51.522;7.020;2023-06-22T08:54:22;26.20;99.90
31639;DHT22;18248;51.522;7.020;2023-06-22T08:57:21;26.00;99.90
31639;DHT22;18248;51.522;7.020;2023-06-22T09:00:20;25.90;99.90
31639;DHT22;18248;51.522;7.020;2023-06-22T09:03:18;25.80;99.90
31639;DHT22;18248;51.522;7.020;2023-06-22T09:06:18;25.70;99.90
31639;DHT22;18248;51.522;7.020;2023-06-22T09:09:18;25.60;99.90
31639;DHT22;18248;51.522;7.020;2023-06-22T09:12:18;25.50;99.90
31639;DHT22;18248;51.522;7.020;2023-06-22T09:15:18;25.50;99.90
31639;DHT22;18248;51.522;7.020;2023-06-22T09:18:16;25.40;99.90
31639;DHT22;18248;51.522;7.020;2023-06-22T09:21:15;25.40;99.90
31639;DHT22;18248;51.522;7.020;2023-06-22T09:24:13;25.40;99.90
31639;DHT22;18248;51.522;7.020;2023-06-22T09:27:12;25.40;99.90
31639;DHT22;18248;51.522;7.020;2023-06-22T09:30:12;25.50;99.90
31639;DHT22;18248;51.522;7.020;2023-06-22T09:33:10;25.50;99.90
31639;DHT22;18248;51.522;7.020;2023-06-22T09:36:09;25.40;99.90
31639;DHT22;18248;51.522;7.020;2023-06-22T09:39:07;25.40;99.90
31639;DHT22;18248;51.522;7.020;2023-06-22T09:42:06;25.40;99.90
31639;DHT22;18248;51.522;7.020;2023-06-22T09:45:05;25.40;99.90
31639;DHT22;18248;51.522;7.020;2023-06-22T09:48:04;25.40;99.90
31639;DHT22;18248;51.522;7.020;2023-06-22T09:51:03;25.50;99.90
31639;DHT22;18248;51.522;7.020;2023-06-22T09:54:01;25.50;99.90
31639;DHT22;18248;51.522;7.020;2023-06-22T09:57:00;25.50;99.90
31639;DHT22;18248;51.522;7.020;2023-06-22T09:59:58;25.60;99.90
31639;DHT22;18248;51.522;7.020;2023-06-22T10:02:58;25.70;99.90
31639;DHT22;18248;51.522;7.020;2023-06-22T10:05:56;25.80;99.90
31639;DHT22;18248;51.522;7.020;2023-06-22T10:08:56;26.00;99.90
31639;DHT22;18248;51.522;7.020;2023-06-22T10:11:55;26.40;99.90
31639;DHT22;18248;51.522;7.020;2023-06-22T10:14:53;26.70;99.90
31639;DHT22;18248;51.522;7.020;2023-06-22T10:17:52;26.90;99.90
31639;DHT22;18248;51.522;7.020;2023-06-22T10:20:51;27.00;99.90
31639;DHT22;18248;51.522;7.020;2023-06-22T10:23:50;27.10;99.90
31639;DHT22;18248;51.522;7.020;2023-06-22T10:26:49;27.40;99.90
31639;DHT22;18248;51.522;7.020;2023-06-22T10:29:47;27.60;99.90
31639;DHT22;18248;51.522;7.020;2023-06-22T10:32:46;27.80;99.90
31639;DHT22;18248;51.522;7.020;2023-06-22T10:35:44;28.00;99.90
31639;DHT22;18248;51.522;7.020;2023-06-22T10:38:43;28.20;99.90
31639;DHT22;18248;51.522;7.020;2023-06-22T10:41:41;28.70;99.90
31639;DHT22;18248;51.522;7.020;2023-06-22T10:44:41;28.90;99.90
31639;DHT22;18248;51.522;7.020;2023-06-22T10:47:41;28.90;99.90
31639;DHT22;18248;51.522;7.020;2023-06-22T10:50:46;29.00;99.90
31639;DHT22;18248;51.522;7.020;2023-06-22T10:53:45;28.90;99.90
31639;DHT22;18248;51.522;7.020;2023-06-22T10:56:44;28.80;99.90
31639;DHT22;18248;51.522;7.020;2023-06-22T10:59:42;28.80;99.90
31639;DHT22;18248;51.522;7.020;2023-06-22T11:02:41;28.70;99.90
31639;DHT22;18248;51.522;7.020;2023-06-22T11:05:40;28.50;99.90
31639;DHT22;18248;51.522;7.020;2023-06-22T11:08:40;28.30;99.90
31639;DHT22;18248;51.522;7.020;2023-06-22T11:11:40;28.20;99.90
31639;DHT22;18248;51.522;7.020;2023-06-22T11:14:39;28.10;99.90
31639;DHT22;18248;51.522;7.020;2023-06-22T11:17:38;27.90;99.90
31639;DHT22;18248;51.522;7.020;2023-06-22T11:20:38;27.80;99.90
31639;DHT22;18248;51.522;7.020;2023-06-22T11:23:39;27.70;99.90
31639;DHT22;18248;51.522;7.020;2023-06-22T11:26:38;27.60;99.90
31639;DHT22;18248;51.522;7.020;2023-06-22T11:29:36;27.50;99.90
31639;DHT22;18248;51.522;7.020;2023-06-22T11:32:35;27.40;99.90
31639;DHT22;18248;51.522;7.020;2023-06-22T11:35:34;27.40;99.90
31639;DHT22;18248;51.522;7.020;2023-06-22T11:38:33;27.30;99.90
31639;DHT22;18248;51.522;7.020;2023-06-22T11:41:32;27.10;99.90
31639;DHT22;18248;51.522;7.020;2023-06-22T11:44:30;27.10;99.90
31639;DHT22;18248;51.522;7.020;2023-06-22T11:47:29;26.90;99.90
31639;DHT22;18248;51.522;7.020;2023-06-22T11:50:29;26.70;99.90
31639;DHT22;18248;51.522;7.020;2023-06-22T11:53:29;26.50;99.90
31639;DHT22;18248;51.522;7.020;2023-06-22T11:56:27;26.40;99.90
31639;DHT22;18248;51.522;7.020;2023-06-22T11:59:26;26.40;99.90
31639;DHT22;18248;51.522;7.020;2023-06-22T12:02:25;26.20;99.90
31639;DHT22;18248;51.522;7.020;2023-06-22T12:05:23;26.10;99.90
31639;DHT22;18248;51.522;7.020;2023-06-22T12:08:24;26.00;99.90
31639;DHT22;18248;51.522;7.020;2023-06-22T12:11:22;25.90;99.90
31639;DHT22;18248;51.522;7.020;2023-06-22T12:14:21;25.80;99.90
31639;DHT22;18248;51.522;7.020;2023-06-22T12:17:20;25.70;99.90
31639;DHT22;18248;51.522;7.020;2023-06-22T12:20:19;25.50;99.90
31639;DHT22;18248;51.522;7.020;2023-06-22T12:23:17;25.50;99.90
31639;DHT22;18248;51.522;7.020;2023-06-22T12:26:16;25.40;99.90
31639;DHT22;18248;51.522;7.020;2023-06-22T12:29:16;25.30;99.90
31639;DHT22;18248;51.522;7.020;2023-06-22T12:32:14;25.20;99.90
31639;DHT22;18248;51.522;7.020;2023-06-22T12:35:13;25.10;99.90
31639;DHT22;18248;51.522;7.020;2023-06-22T12:38:12;25.00;99.90
31639;DHT22;18248;51.522;7.020;2023-06-22T12:41:12;25.10;99.90
31639;DHT22;18248;51.522;7.020;2023-06-22T12:44:10;25.10;99.90
31639;DHT22;18248;51.522;7.020;2023-06-22T12:47:09;25.10;99.90
31639;DHT22;18248;51.522;7.020;2023-06-22T12:50:08;25.10;99.90
31639;DHT22;18248;51.522;7.020;2023-06-22T12:53:08;25.00;99.90
31639;DHT22;18248;51.522;7.020;2023-06-22T12:56:07;25.10;99.90
31639;DHT22;18248;51.522;7.020;2023-06-22T12:59:06;25.10;99.90
31639;DHT22;18248;51.522;7.020;2023-06-22T13:02:06;25.20;99.90
31639;DHT22;18248;51.522;7.020;2023-06-22T13:05:05;25.20;99.90
31639;DHT22;18248;51.522;7.020;2023-06-22T13:08:03;25.20;99.90
31639;DHT22;18248;51.522;7.020;2023-06-22T13:11:06;25.20;99.90
31639;DHT22;18248;51.522;7.020;2023-06-22T13:14:06;25.20;99.90
31639;DHT22;18248;51.522;7.020;2023-06-22T13:17:04;25.10;99.90
31639;DHT22;18248;51.522;7.020;2023-06-22T13:20:05;25.20;99.90
31639;DHT22;18248;51.522;7.020;2023-06-22T13:23:04;25.10;99.90
31639;DHT22;18248;51.522;7.020;2023-06-22T13:26:02;25.10;99.90
31639;DHT22;18248;51.522;7.020;2023-06-22T13:29:02;25.10;99.90
31639;DHT22;18248;51.522;7.020;2023-06-22T13:32:00;25.10;99.90
31639;DHT22;18248;51.522;7.020;2023-06-22T13:35:01;25.10;99.90
31639;DHT22;18248;51.522;7.020;2023-06-22T13:37:59;25.10;99.90
31639;DHT22;18248;51.522;7.020;2023-06-22T13:40:58;25.00;99.90
31639;DHT22;18248;51.522;7.020;2023-06-22T13:43:57;25.00;99.90
31639;DHT22;18248;51.522;7.020;2023-06-22T13:46:57;25.00;99.90
31639;DHT22;18248;51.522;7.020;2023-06-22T13:49:56;25.00;99.90
31639;DHT22;18248;51.522;7.020;2023-06-22T13:52:56;25.00;99.90
31639;DHT22;18248;51.522;7.020;2023-06-22T13:55:56;25.10;99.90
31639;DHT22;18248;51.522;7.020;2023-06-22T13:58:56;25.10;99.90
31639;DHT22;18248;51.522;7.020;2023-06-22T14:01:54;25.20;99.90
31639;DHT22;18248;51.522;7.020;2023-06-22T14:04:53;25.30;99.90
31639;DHT22;18248;51.522;7.020;2023-06-22T14:07:51;25.40;99.90
31639;DHT22;18248;51.522;7.020;2023-06-22T14:10:50;25.40;99.90
31639;DHT22;18248;51.522;7.020;2023-06-22T14:13:49;25.40;99.90
31639;DHT22;18248;51.522;7.020;2023-06-22T14:16:47;25.40;99.90
31639;DHT22;18248;51.522;7.020;2023-06-22T14:19:48;25.40;99.90
31639;DHT22;18248;51.522;7.020;2023-06-22T14:22:48;25.30;99.90
31639;DHT22;18248;51.522;7.020;2023-06-22T14:25:48;25.30;99.90
31639;DHT22;18248;51.522;7.020;2023-06-22T14:28:47;25.30;99.90
31639;DHT22;18248;51.522;7.020;2023-06-22T14:31:49;25.20;99.90
31639;DHT22;18248;51.522;7.020;2023-06-22T14:34:47;25.30;99.90
31639;DHT22;18248;51.522;7.020;2023-06-22T14:37:48;25.20;99.90
31639;DHT22;18248;51.522;7.020;2023-06-22T14:40:47;25.30;99.90
31639;DHT22;18248;51.522;7.020;2023-06-22T14:43:47;25.30;99.90
31639;DHT22;18248;51.522;7.020;2023-06-22T14:46:47;25.30;99.90
31639;DHT22;18248;51.522;7.020;2023-06-22T14:49:46;25.30;99.90
31639;DHT22;18248;51.522;7.020;2023-06-22T14:52:44;25.20;99.90
31639;DHT22;18248;51.522;7.020;2023-06-22T14:55:43;25.20;99.90
31639;DHT22;18248;51.522;7.020;2023-06-22T14:58:43;25.20;99.90
31639;DHT22;18248;51.522;7.020;2023-06-22T15:01:43;25.20;99.90
31639;DHT22;18248;51.522;7.020;2023-06-22T15:04:42;25.20;99.90
31639;DHT22;18248;51.522;7.020;2023-06-22T15:07:41;25.20;99.90
31639;DHT22;18248;51.522;7.020;2023-06-22T15:10:39;25.10;99.90
31639;DHT22;18248;51.522;7.020;2023-06-22T15:13:42;25.00;99.90
31639;DHT22;18248;51.522;7.020;2023-06-22T15:16:42;25.00;99.90
31639;DHT22;18248;51.522;7.020;2023-06-22T15:19:40;25.00;99.90
31639;DHT22;18248;51.522;7.020;2023-06-22T15:22:39;25.10;99.90
31639;DHT22;18248;51.522;7.020;2023-06-22T15:25:37;25.10;99.90
31639;DHT22;18248;51.522;7.020;2023-06-22T15:28:36;25.10;99.90
31639;DHT22;18248;51.522;7.020;2023-06-22T15:31:36;25.00;99.90
31639;DHT22;18248;51.522;7.020;2023-06-22T15:34:34;25.00;99.90
31639;DHT22;18248;51.522;7.020;2023-06-22T15:37:33;24.90;99.90
31639;DHT22;18248;51.522;7.020;2023-06-22T15:40:31;24.90;99.90
31639;DHT22;18248;51.522;7.020;2023-06-22T15:43:30;24.90;99.90
31639;DHT22;18248;51.522;7.020;2023-06-22T15:46:29;24.80;99.90
31639;DHT22;18248;51.522;7.020;2023-06-22T15:49:27;24.80;99.90
31639;DHT22;18248;51.522;7.020;2023-06-22T15:52:26;24.70;99.90
31639;DHT22;18248;51.522;7.020;2023-06-22T15:55:24;24.60;99.90
31639;DHT22;18248;51.522;7.020;2023-06-22T15:58:24;24.50;99.90
31639;DHT22;18248;51.522;7.020;2023-06-22T16:01:23;24.40;99.90
31639;DHT22;18248;51.522;7.020;2023-06-22T16:04:22;24.30;99.90
31639;DHT22;18248;51.522;7.020;2023-06-22T16:07:20;24.20;99.90
31639;DHT22;18248;51.522;7.020;2023-06-22T16:10:19;24.00;99.90
31639;DHT22;18248;51.522;7.020;2023-06-22T16:13:18;23.80;99.90
31639;DHT22;18248;51.522;7.020;2023-06-22T16:16:16;23.60;99.90
31639;DHT22;18248;51.522;7.020;2023-06-22T16:19:15;23.40;99.90
31639;DHT22;18248;51.522;7.020;2023-06-22T16:22:14;23.30;99.90
31639;DHT22;18248;51.522;7.020;2023-06-22T16:25:13;23.10;99.90
31639;DHT22;18248;51.522;7.020;2023-06-22T16:28:12;23.00;99.90
31639;DHT22;18248;51.522;7.020;2023-06-22T16:31:11;22.80;99.90
31639;DHT22;18248;51.522;7.020;2023-06-22T16:34:09;22.70;99.90
31639;DHT22;18248;51.522;7.020;2023-06-22T16:37:08;22.60;99.90
31639;DHT22;18248;51.522;7.020;2023-06-22T16:40:07;22.60;99.90
31639;DHT22;18248;51.522;7.020;2023-06-22T16:43:07;22.50;99.90
31639;DHT22;18248;51.522;7.020;2023-06-22T16:46:06;22.30;99.90
31639;DHT22;18248;51.522;7.020;2023-06-22T16:49:04;22.30;99.90
31639;DHT22;18248;51.522;7.020;2023-06-22T16:52:03;22.20;99.90
31639;DHT22;18248;51.522;7.020;2023-06-22T16:55:06;22.20;99.90
31639;DHT22;18248;51.522;7.020;2023-06-22T16:58:06;22.10;99.90
31639;DHT22;18248;51.522;7.020;2023-06-22T17:01:07;22.20;99.90
31639;DHT22;18248;51.522;7.020;2023-06-22T17:04:09;22.10;99.90
31639;DHT22;18248;51.522;7.020;2023-06-22T17:07:11;22.00;99.90
31639;DHT22;18248;51.522;7.020;2023-06-22T17:10:11;22.00;99.90
31639;DHT22;18248;51.522;7.020;2023-06-22T17:13:10;21.90;99.90
31639;DHT22;18248;51.522;7.020;2023-06-22T17:16:09;21.80;99.90
31639;DHT22;18248;51.522;7.020;2023-06-22T17:19:08;21.70;99.90
31639;DHT22;18248;51.522;7.020;2023-06-22T17:22:07;21.70;99.90
31639;DHT22;18248;51.522;7.020;2023-06-22T17:25:09;21.60;99.90
31639;DHT22;18248;51.522;7.020;2023-06-22T17:28:08;21.70;99.90
31639;DHT22;18248;51.522;7.020;2023-06-22T17:31:10;21.60;99.90
31639;DHT22;18248;51.522;7.020;2023-06-22T17:34:12;21.60;99.90
31639;DHT22;18248;51.522;7.020;2023-06-22T17:37:13;21.60;99.90
31639;DHT22;18248;51.522;7.020;2023-06-22T17:40:17;21.70;99.90
31639;DHT22;18248;51.522;7.020;2023-06-22T17:43:19;21.70;99.90
31639;DHT22;18248;51.522;7.020;2023-06-22T17:46:18;21.70;99.90
31639;DHT22;18248;51.522;7.020;2023-06-22T17:49:16;21.70;99.90
31639;DHT22;18248;51.522;7.020;2023-06-22T17:52:19;21.60;99.90
31639;DHT22;18248;51.522;7.020;2023-06-22T17:55:22;21.60;99.90
31639;DHT22;18248;51.522;7.020;2023-06-22T17:58:21;21.60;99.90
31639;DHT22;18248;51.522;7.020;2023-06-22T18:04:32;21.50;99.90
31639;DHT22;18248;51.522;7.020;2023-06-22T18:07:33;21.50;99.90
31639;DHT22;18248;51.522;7.020;2023-06-22T18:10:33;21.50;99.90
31639;DHT22;18248;51.522;7.020;2023-06-22T18:13:33;21.50;99.90
31639;DHT22;18248;51.522;7.020;2023-06-22T18:16:33;21.40;99.90
31639;DHT22;18248;51.522;7.020;2023-06-22T18:19:34;21.40;99.90
31639;DHT22;18248;51.522;7.020;2023-06-22T18:22:35;21.40;99.90
31639;DHT22;18248;51.522;7.020;2023-06-22T18:25:34;21.40;99.90
31639;DHT22;18248;51.522;7.020;2023-06-22T18:28:34;21.50;99.90
31639;DHT22;18248;51.522;7.020;2023-06-22T18:31:34;21.50;99.90
31639;DHT22;18248;51.522;7.020;2023-06-22T18:34:35;21.50;99.90
31639;DHT22;18248;51.522;7.020;2023-06-22T18:37:34;21.50;99.90
31639;DHT22;18248;51.522;7.020;2023-06-22T18:40:33;21.40;99.90
31639;DHT22;18248;51.522;7.020;2023-06-22T18:43:37;21.40;99.90
31639;DHT22;18248;51.522;7.020;2023-06-22T18:46:37;21.40;99.90
31639;DHT22;18248;51.522;7.020;2023-06-22T18:52:39;21.30;99.90
31639;DHT22;18248;51.522;7.020;2023-06-22T18:55:41;21.40;99.90
31639;DHT22;18248;51.522;7.020;2023-06-22T18:58:43;21.40;99.90
31639;DHT22;18248;51.522;7.020;2023-06-22T19:01:42;21.40;99.90
31639;DHT22;18248;51.522;7.020;2023-06-22T19:04:44;21.40;99.90